Time;durP1;ratioP1;P1;durP2;ratioP2;P2;SDS_P1;SDS_P2;PMS_P1;PMS_P2;Temp;Humidity;BMP_temperature;BMP_pressure;BME280_temperature;BME280_humidity;BME280_pressure;Samples;Min_cycle;Max_cycle;Signal;HPM_P1;HPM_P2
2023/07/11 00:02:15;;;;;;;6.05;2.35;;;20.10;99.90;;;;;;5031742;28;20076;-68
2023/07/11 00:04:41;;;;;;;6.15;2.28;;;20.10;99.90;;;;;;5032482;28;20080;-69
2023/07/11 00:07:07;;;;;;;5.90;2.58;;;20.10;99.90;;;;;;5032327;28;20042;-74
2023/07/11 00:09:33;;;;;;;8.38;3.05;;;20.10;99.90;;;;;;5031172;28;20049;-69
2023/07/11 00:11:59;;;;;;;5.43;2.42;;;20.10;99.90;;;;;;5031235;28;20399;-69
2023/07/11 00:14:24;;;;;;;5.43;2.60;;;20.10;99.90;;;;;;5031890;28;20049;-68
2023/07/11 00:16:50;;;;;;;6.13;2.63;;;20.00;99.90;;;;;;5031149;28;20049;-69
2023/07/11 00:19:19;;;;;;;4.53;2.10;;;20.00;99.90;;;;;;5031843;28;20046;-68
2023/07/11 00:21:45;;;;;;;4.60;2.20;;;20.00;99.90;;;;;;5031481;28;20056;-69
2023/07/11 00:24:11;;;;;;;7.18;2.38;;;20.00;99.90;;;;;;5031622;28;20075;-69
2023/07/11 00:26:37;;;;;;;6.30;2.10;;;20.00;99.90;;;;;;5032255;28;20046;-69
2023/07/11 00:29:21;;;;;;;4.72;1.80;;;20.00;99.90;;;;;;5032535;28;20137;-69
2023/07/11 00:31:47;;;;;;;;;;;20.00;99.90;;;;;;5032609;28;20041;-68
2023/07/11 00:34:13;;;;;;;5.63;2.20;;;19.90;99.90;;;;;;5031714;28;19928;-70
2023/07/11 00:36:38;;;;;;;4.22;1.95;;;19.90;99.90;;;;;;5030902;28;20505;-69
2023/07/11 00:39:05;;;;;;;5.30;2.22;;;19.90;99.90;;;;;;5030969;28;20121;-68
2023/07/11 00:41:31;;;;;;;4.50;2.22;;;19.90;99.90;;;;;;5031848;28;20072;-68
2023/07/11 00:43:57;;;;;;;7.20;2.13;;;19.90;99.90;;;;;;5047669;28;20049;-69
2023/07/11 00:46:23;;;;;;;4.72;2.33;;;19.90;99.90;;;;;;5031436;28;20053;-69
2023/07/11 00:48:53;;;;;;;6.28;2.05;;;19.90;99.90;;;;;;5032130;28;20041;-69
2023/07/11 00:51:29;;;;;;;9.13;2.20;;;19.90;99.90;;;;;;5031736;28;20068;-69
2023/07/11 00:53:55;;;;;;;5.03;2.28;;;20.00;99.90;;;;;;5031314;28;20053;-68
2023/07/11 00:56:26;;;;;;;8.07;2.28;;;20.00;99.90;;;;;;5030657;28;20060;-69
2023/07/11 00:58:52;;;;;;;6.95;2.20;;;20.00;99.90;;;;;;5047750;28;20053;-68
2023/07/11 01:01:19;;;;;;;4.68;1.92;;;19.90;99.90;;;;;;5031638;28;20062;-68
2023/07/11 01:03:46;;;;;;;5.72;1.80;;;19.90;99.90;;;;;;5030846;28;20136;-69
2023/07/11 01:06:18;;;;;;;4.85;2.08;;;20.00;99.90;;;;;;5031681;28;20119;-68
2023/07/11 01:08:46;;;;;;;8.05;1.98;;;19.90;99.90;;;;;;5031748;28;20108;-68
2023/07/11 01:11:12;;;;;;;7.32;1.98;;;19.90;99.90;;;;;;5034599;28;20051;-69
2023/07/11 01:13:38;;;;;;;6.57;2.50;;;19.80;99.90;;;;;;5033818;28;20076;-69
2023/07/11 01:16:04;;;;;;;6.18;2.47;;;19.70;99.90;;;;;;5035287;28;20609;-70
2023/07/11 01:18:30;;;;;;;5.72;1.98;;;19.70;99.90;;;;;;5034940;28;20045;-69
2023/07/11 01:20:57;;;;;;;5.97;2.22;;;19.60;99.90;;;;;;5034972;28;20069;-69
2023/07/11 01:23:23;;;;;;;6.15;2.10;;;19.60;99.90;;;;;;5035016;28;20402;-68
2023/07/11 01:25:49;;;;;;;5.47;2.28;;;19.60;99.90;;;;;;5035249;28;20045;-69
2023/07/11 01:28:15;;;;;;;7.82;2.40;;;19.50;99.90;;;;;;5050334;28;20049;-69
2023/07/11 01:30:41;;;;;;;4.68;2.00;;;19.50;99.90;;;;;;5033450;28;20110;-68
2023/07/11 01:33:07;;;;;;;5.93;2.30;;;19.50;99.90;;;;;;5035355;28;20052;-67
2023/07/11 01:35:32;;;;;;;7.60;2.50;;;19.50;99.90;;;;;;5034901;28;20518;-68
2023/07/11 01:37:58;;;;;;;7.40;2.22;;;19.50;99.90;;;;;;5034710;28;20187;-69
2023/07/11 01:40:24;;;;;;;9.43;2.30;;;19.50;99.90;;;;;;5034177;28;20037;-69
2023/07/11 01:42:50;;;;;;;10.85;2.58;;;19.50;99.90;;;;;;5033519;28;20487;-68
2023/07/11 01:45:16;;;;;;;8.32;2.30;;;19.40;99.90;;;;;;5034890;28;20054;-69
2023/07/11 01:47:42;;;;;;;6.03;2.53;;;19.40;99.90;;;;;;5034185;28;20076;-69
2023/07/11 01:50:08;;;;;;;5.88;2.10;;;19.40;99.90;;;;;;5034730;28;20046;-68
2023/07/11 01:52:35;;;;;;;10.02;2.63;;;19.40;99.90;;;;;;5033377;28;20060;-69
2023/07/11 01:55:00;;;;;;;4.90;2.38;;;19.40;99.90;;;;;;5034829;28;20124;-69
2023/07/11 01:57:26;;;;;;;7.30;2.33;;;19.50;99.90;;;;;;5034371;28;20076;-69
2023/07/11 01:59:52;;;;;;;6.88;2.42;;;19.50;99.90;;;;;;5034659;28;20048;-68
2023/07/11 02:02:19;;;;;;;6.93;2.25;;;19.50;99.90;;;;;;5034779;28;20471;-69
2023/07/11 02:04:45;;;;;;;5.50;2.03;;;19.50;99.90;;;;;;5034229;28;20148;-67
2023/07/11 02:07:11;;;;;;;4.90;2.25;;;19.50;99.90;;;;;;5034856;28;20080;-68
2023/07/11 02:09:37;;;;;;;5.22;2.30;;;19.50;99.90;;;;;;5033819;28;20505;-69
2023/07/11 02:12:03;;;;;;;7.45;2.95;;;19.40;99.90;;;;;;5034687;28;20095;-68
2023/07/11 02:14:29;;;;;;;8.13;2.50;;;19.40;99.90;;;;;;5034161;28;20046;-68
2023/07/11 02:16:55;;;;;;;5.30;2.15;;;19.30;99.90;;;;;;5034502;28;20376;-68
2023/07/11 02:19:22;;;;;;;7.68;2.85;;;19.20;99.90;;;;;;5016481;28;20091;-69
2023/07/11 02:21:48;;;;;;;7.35;2.60;;;19.20;99.90;;;;;;5033819;28;20084;-68
2023/07/11 02:24:16;;;;;;;7.97;2.72;;;19.10;99.90;;;;;;5033953;28;20045;-68
2023/07/11 02:26:42;;;;;;;8.90;2.92;;;19.00;99.90;;;;;;5033804;28;20403;-68
2023/07/11 02:29:08;;;;;;;12.15;2.70;;;19.00;99.90;;;;;;5049293;28;20041;-69
2023/07/11 02:31:35;;;;;;;6.57;2.50;;;18.90;99.90;;;;;;5033562;28;20048;-69
2023/07/11 02:34:01;;;;;;;7.78;2.42;;;18.90;99.90;;;;;;5034116;28;20053;-69
2023/07/11 02:36:28;;;;;;;6.93;2.63;;;18.80;99.90;;;;;;5033714;28;20124;-76
2023/07/11 02:38:53;;;;;;;5.90;2.70;;;18.80;99.90;;;;;;5033756;28;20482;-69
2023/07/11 02:41:19;;;;;;;6.20;2.47;;;18.80;99.90;;;;;;5032591;28;20053;-68
2023/07/11 02:43:48;;;;;;;10.30;3.13;;;18.70;99.90;;;;;;5033316;28;20041;-69
2023/07/11 02:46:15;;;;;;;9.57;3.10;;;18.70;99.90;;;;;;5032522;28;20107;-68
2023/07/11 02:48:44;;;;;;;8.65;2.75;;;18.70;99.90;;;;;;5032530;28;20053;-69
2023/07/11 02:51:10;;;;;;;8.10;3.00;;;18.60;99.90;;;;;;5033650;28;20041;-69
2023/07/11 02:53:36;;;;;;;7.10;2.60;;;18.60;99.90;;;;;;5032474;28;20045;-68
2023/07/11 02:56:02;;;;;;;6.88;2.58;;;18.60;99.90;;;;;;5032651;28;20084;-68
2023/07/11 02:58:28;;;;;;;8.60;2.63;;;18.70;99.90;;;;;;5033521;28;20050;-69
2023/07/11 03:00:56;;;;;;;7.68;2.92;;;18.70;99.90;;;;;;5031845;28;20437;-69
2023/07/11 03:03:22;;;;;;;9.50;2.42;;;18.70;99.90;;;;;;5032515;28;20076;-68
2023/07/11 03:05:50;;;;;;;7.90;3.00;;;18.70;99.90;;;;;;5033190;28;20051;-68
2023/07/11 03:08:16;;;;;;;5.55;2.58;;;18.60;99.90;;;;;;5032857;28;20533;-69
2023/07/11 03:10:42;;;;;;;7.93;2.55;;;18.60;99.90;;;;;;5032744;28;20045;-68
2023/07/11 03:13:09;;;;;;;7.13;2.80;;;18.60;99.90;;;;;;5032225;28;20049;-69
2023/07/11 03:15:36;;;;;;;6.88;2.83;;;18.50;99.90;;;;;;5032735;28;20132;-70
2023/07/11 03:18:02;;;;;;;6.43;2.65;;;18.50;99.90;;;;;;5032215;28;20057;-68
2023/07/11 03:20:28;;;;;;;7.43;3.05;;;18.50;99.90;;;;;;5032957;28;20124;-68
2023/07/11 03:22:54;;;;;;;8.05;2.65;;;18.50;99.90;;;;;;5031343;28;20178;-68
2023/07/11 03:25:20;;;;;;;8.55;3.10;;;18.50;99.90;;;;;;5032987;28;20045;-68
2023/07/11 03:27:46;;;;;;;5.95;2.50;;;18.50;99.90;;;;;;5032360;28;20037;-69
2023/07/11 03:30:12;;;;;;;5.70;2.90;;;18.50;99.90;;;;;;5032421;28;20045;-69
2023/07/11 03:32:37;;;;;;;6.78;2.90;;;18.50;99.90;;;;;;5031783;28;20474;-69
2023/07/11 03:35:04;;;;;;;8.80;2.92;;;18.50;99.90;;;;;;5031758;28;20055;-68
2023/07/11 03:37:30;;;;;;;9.23;2.90;;;18.50;99.90;;;;;;5031522;28;20067;-68
2023/07/11 03:39:56;;;;;;;8.60;2.80;;;18.50;99.90;;;;;;5047733;28;20047;-68
2023/07/11 03:42:22;;;;;;;6.80;2.75;;;18.50;99.90;;;;;;5032739;28;20045;-68
2023/07/11 03:44:47;;;;;;;7.20;2.90;;;18.50;99.90;;;;;;5032408;28;20076;-68
2023/07/11 03:47:13;;;;;;;12.30;3.40;;;18.50;99.90;;;;;;5032526;28;20046;-68
2023/07/11 03:49:39;;;;;;;7.20;3.03;;;18.50;99.90;;;;;;5032023;28;20050;-70
2023/07/11 03:52:05;;;;;;;8.88;3.25;;;18.50;99.90;;;;;;5032457;28;20081;-68
2023/07/11 03:54:31;;;;;;;8.38;3.30;;;18.50;99.90;;;;;;5032664;28;20045;-68
2023/07/11 03:56:56;;;;;;;9.80;3.13;;;18.50;99.90;;;;;;5032155;28;20045;-69
2023/07/11 03:59:22;;;;;;;6.05;3.08;;;18.50;99.90;;;;;;5031621;28;20107;-68
2023/07/11 04:01:48;;;;;;;9.88;3.00;;;18.60;99.90;;;;;;5031633;28;20057;-68
2023/07/11 04:04:14;;;;;;;7.15;3.25;;;18.60;99.90;;;;;;5032482;28;20506;-68
2023/07/11 04:06:40;;;;;;;8.25;3.10;;;18.60;99.90;;;;;;5032495;28;20054;-75
2023/07/11 04:09:06;;;;;;;7.18;2.95;;;18.60;99.90;;;;;;5048106;28;20103;-68
2023/07/11 04:11:32;;;;;;;8.55;3.13;;;18.60;99.90;;;;;;5031267;28;20049;-68
2023/07/11 04:13:58;;;;;;;12.15;3.17;;;18.60;99.90;;;;;;5031045;28;20060;-67
2023/07/11 04:16:23;;;;;;;6.93;3.15;;;18.60;99.90;;;;;;5032392;28;20132;-69
2023/07/11 04:18:49;;;;;;;6.38;3.08;;;18.70;99.90;;;;;;5031465;28;20049;-70
2023/07/11 04:21:16;;;;;;;9.50;3.40;;;18.70;99.90;;;;;;5032226;28;20049;-69
2023/07/11 04:23:43;;;;;;;8.15;3.10;;;18.70;99.90;;;;;;5031773;28;20072;-73
2023/07/11 04:26:08;;;;;;;9.23;3.00;;;18.70;99.90;;;;;;5032360;28;20053;-70
2023/07/11 04:28:34;;;;;;;9.88;3.00;;;18.80;99.90;;;;;;5032320;28;20402;-70
2023/07/11 04:31:01;;;;;;;9.30;2.88;;;18.80;99.90;;;;;;5031734;28;20175;-68
2023/07/11 04:33:27;;;;;;;7.38;3.15;;;18.80;99.90;;;;;;5031912;28;20053;-68
2023/07/11 04:35:52;;;;;;;12.18;3.58;;;18.90;99.90;;;;;;5031531;28;20095;-68
2023/07/11 04:38:18;;;;;;;7.35;2.97;;;18.80;99.90;;;;;;5032106;28;20057;-68
2023/07/11 04:40:45;;;;;;;8.55;3.30;;;18.80;99.90;;;;;;5030671;28;20042;-76
2023/07/11 04:43:11;;;;;;;7.65;3.20;;;18.90;99.90;;;;;;5031690;28;20046;-71
2023/07/11 04:45:36;;;;;;;7.72;3.25;;;18.90;99.90;;;;;;5035635;28;20119;-69
2023/07/11 04:48:02;;;;;;;8.20;3.35;;;19.00;99.90;;;;;;5035786;28;20092;-68
2023/07/11 04:50:28;;;;;;;10.65;4.03;;;19.00;99.90;;;;;;5036055;28;20045;-68
2023/07/11 04:52:54;;;;;;;11.30;3.70;;;19.10;99.90;;;;;;5035333;28;20041;-68
2023/07/11 04:55:20;;;;;;;6.40;3.33;;;19.20;99.90;;;;;;5035723;28;20103;-69
2023/07/11 04:57:46;;;;;;;8.98;3.45;;;19.30;99.90;;;;;;5034781;28;20524;-75
2023/07/11 05:00:12;;;;;;;8.95;3.95;;;19.30;99.90;;;;;;5035587;28;20117;-68
2023/07/11 05:02:38;;;;;;;8.35;3.88;;;19.40;99.90;;;;;;5035284;28;20061;-69
2023/07/11 05:05:04;;;;;;;10.32;3.72;;;19.40;99.90;;;;;;5034968;28;20076;-67
2023/07/11 05:07:29;;;;;;;9.32;3.83;;;19.30;99.90;;;;;;5034696;28;20478;-68
2023/07/11 05:09:55;;;;;;;7.50;3.42;;;19.40;99.90;;;;;;5034900;28;20045;-68
2023/07/11 05:12:21;;;;;;;8.00;3.50;;;19.40;99.90;;;;;;5035490;28;20060;-68
2023/07/11 05:14:47;;;;;;;9.30;3.88;;;19.60;99.90;;;;;;5035342;28;20048;-68
2023/07/11 05:17:12;;;;;;;9.10;3.03;;;19.80;99.90;;;;;;5034549;28;20049;-67
2023/07/11 05:19:38;;;;;;;9.13;3.65;;;20.10;99.90;;;;;;5034356;28;20057;-68
2023/07/11 05:22:04;;;;;;;16.73;3.90;;;20.40;99.90;;;;;;5034875;28;20136;-68
2023/07/11 05:24:30;;;;;;;9.18;3.88;;;20.80;99.90;;;;;;5017584;28;20136;-69
2023/07/11 05:26:56;;;;;;;6.10;2.80;;;21.50;99.90;;;;;;5050098;28;20364;-68
2023/07/11 05:29:23;;;;;;;9.85;3.67;;;22.40;99.90;;;;;;5034999;28;20442;-67
2023/07/11 05:31:48;;;;;;;8.95;3.83;;;23.10;99.90;;;;;;5035228;28;20049;-67
2023/07/11 05:34:14;;;;;;;9.63;2.95;;;23.80;99.90;;;;;;5034485;28;20088;-68
2023/07/11 05:36:40;;;;;;;8.15;2.95;;;24.00;99.90;;;;;;5035059;28;20041;-69
2023/07/11 05:39:10;;;;;;;7.85;3.25;;;23.60;99.80;;;;;;5034542;28;20376;-67
2023/07/11 05:41:37;;;;;;;8.30;3.42;;;23.30;99.90;;;;;;5035353;28;20048;-68
2023/07/11 05:44:04;;;;;;;7.05;3.30;;;22.80;99.90;;;;;;5034287;28;20054;-69
2023/07/11 05:46:31;;;;;;;7.15;3.13;;;22.50;99.90;;;;;;5035267;28;20696;-68
2023/07/11 05:48:57;;;;;;;8.25;3.50;;;22.60;99.90;;;;;;5034577;28;20053;-69
2023/07/11 05:51:24;;;;;;;9.35;3.08;;;23.10;99.90;;;;;;5034755;28;20057;-68
2023/07/11 05:53:51;;;;;;;8.10;3.10;;;23.50;99.70;;;;;;5034597;28;20404;-68
2023/07/11 05:56:17;;;;;;;8.00;3.20;;;23.80;99.40;;;;;;5033323;28;20052;-69
2023/07/11 05:58:44;;;;;;;8.50;3.50;;;23.90;99.20;;;;;;5033760;28;20147;-68
2023/07/11 06:01:11;;;;;;;7.38;3.47;;;23.70;99.20;;;;;;5034096;28;20491;-68
2023/07/11 06:03:40;;;;;;;6.75;3.17;;;23.50;99.50;;;;;;5049985;28;20461;-69
2023/07/11 06:06:11;;;;;;;11.20;3.25;;;23.20;99.70;;;;;;5033193;28;20053;-72
2023/07/11 06:08:37;;;;;;;8.35;3.58;;;22.80;99.90;;;;;;5034324;28;20046;-69
2023/07/11 06:11:04;;;;;;;8.73;3.78;;;22.50;99.90;;;;;;5033013;28;20102;-69
2023/07/11 06:13:32;;;;;;;9.95;3.35;;;22.40;99.90;;;;;;5034262;28;20049;-69
2023/07/11 06:16:12;;;;;;;8.05;3.10;;;22.10;99.90;;;;;;5033996;28;20450;-76
2023/07/11 06:18:38;;;;;;;8.25;3.83;;;22.10;99.90;;;;;;5034186;28;20176;-69
2023/07/11 06:21:06;;;;;;;7.30;3.80;;;22.00;99.90;;;;;;5033523;28;20491;-68
2023/07/11 06:23:32;;;;;;;8.32;3.60;;;22.00;99.90;;;;;;5034123;28;20049;-70
2023/07/11 06:25:58;;;;;;;8.07;3.33;;;22.20;99.90;;;;;;5033884;28;20091;-78
2023/07/11 06:28:25;;;;;;;7.28;3.65;;;22.60;99.90;;;;;;5032711;28;20057;-69
2023/07/11 06:30:50;;;;;;;7.40;3.72;;;23.40;99.90;;;;;;5033839;28;20045;-68
2023/07/11 06:33:18;;;;;;;9.13;3.55;;;24.40;99.10;;;;;;5033372;28;20428;-69
2023/07/11 06:35:50;;;;;;;7.90;3.35;;;25.20;97.80;;;;;;5033860;28;20059;-68
2023/07/11 06:38:20;;;;;;;7.20;3.57;;;26.00;97.80;;;;;;5033232;28;20052;-68
2023/07/11 06:40:56;;;;;;;9.57;3.72;;;26.70;95.80;;;;;;5033752;28;20038;-72
2023/07/11 06:43:24;;;;;;;10.05;3.25;;;27.00;95.30;;;;;;5033378;28;20610;-69
2023/07/11 06:45:53;;;;;;;7.82;3.20;;;27.40;95.70;;;;;;5032901;28;20107;-68
2023/07/11 06:48:19;;;;;;;11.35;3.97;;;27.80;94.60;;;;;;5032891;28;20079;-69
2023/07/11 06:51:02;;;;;;;7.68;3.15;;;27.80;94.50;;;;;;5032483;28;20460;-69
2023/07/11 06:53:31;;;;;;;10.15;3.53;;;28.00;94.30;;;;;;5033327;28;20091;-68
2023/07/11 06:55:57;;;;;;;5.28;3.08;;;28.10;94.60;;;;;;5033655;28;20410;-70
2023/07/11 06:58:24;;;;;;;6.30;3.00;;;28.40;94.10;;;;;;5032045;28;20072;-69
2023/07/11 07:00:54;;;;;;;7.72;3.00;;;28.60;93.70;;;;;;5048672;28;20048;-68
2023/07/11 07:03:20;;;;;;;10.32;3.47;;;29.00;93.50;;;;;;5032954;28;20093;-70
2023/07/11 07:05:55;;;;;;;7.32;2.97;;;29.30;93.30;;;;;;5032650;28;20049;-69
2023/07/11 07:08:23;;;;;;;6.45;2.80;;;29.50;92.40;;;;;;5032041;28;20403;-68
2023/07/11 07:10:49;;;;;;;6.35;3.20;;;29.50;92.90;;;;;;5033120;28;20037;-69
2023/07/11 07:13:17;;;;;;;6.65;3.05;;;29.80;92.30;;;;;;5032784;28;20057;-69
2023/07/11 07:15:47;;;;;;;8.85;2.90;;;29.40;92.40;;;;;;5033055;28;20057;-69
2023/07/11 07:18:12;;;;;;;6.63;3.10;;;29.20;92.30;;;;;;5032743;28;20053;-68
2023/07/11 07:20:38;;;;;;;9.18;2.90;;;29.20;92.50;;;;;;5032608;28;20048;-67
2023/07/11 07:23:05;;;;;;;9.48;3.15;;;29.20;92.60;;;;;;5028941;28;20045;-68
2023/07/11 07:25:31;;;;;;;7.80;3.00;;;29.20;92.40;;;;;;5032092;28;20133;-68
2023/07/11 07:27:57;;;;;;;6.47;2.90;;;29.10;92.40;;;;;;5032427;28;20395;-68
2023/07/11 07:30:23;;;;;;;8.77;3.17;;;28.90;92.70;;;;;;5032175;28;20117;-67
2023/07/11 07:32:49;;;;;;;10.52;2.92;;;29.20;92.60;;;;;;5031338;28;20084;-69
2023/07/11 07:35:15;;;;;;;5.40;2.75;;;29.20;92.60;;;;;;5032224;28;20084;-69
2023/07/11 07:37:41;;;;;;;7.90;3.03;;;29.10;92.60;;;;;;5032416;28;20053;-68
2023/07/11 07:40:07;;;;;;;6.75;2.85;;;28.90;92.70;;;;;;5032434;28;20124;-67
2023/07/11 07:42:33;;;;;;;9.18;2.88;;;28.60;92.50;;;;;;5032064;28;20521;-69
2023/07/11 07:44:58;;;;;;;8.40;2.97;;;28.20;92.90;;;;;;5032550;28;20053;-67
2023/07/11 07:47:24;;;;;;;8.75;3.00;;;28.00;93.00;;;;;;5032218;28;20079;-68
2023/07/11 07:49:50;;;;;;;5.28;2.83;;;27.80;93.30;;;;;;5031135;28;20049;-68
2023/07/11 07:52:15;;;;;;;7.65;2.83;;;27.50;93.30;;;;;;5030841;28;20394;-67
2023/07/11 07:54:41;;;;;;;6.70;3.00;;;27.30;93.60;;;;;;5032186;28;20045;-68
2023/07/11 07:57:07;;;;;;;9.63;3.20;;;27.10;93.70;;;;;;5031142;28;20049;-68
2023/07/11 07:59:33;;;;;;;8.50;3.10;;;26.90;93.50;;;;;;5030447;28;20183;-68
2023/07/11 08:01:58;;;;;;;7.65;2.88;;;26.70;93.90;;;;;;5014462;28;20049;-68
2023/07/11 08:04:24;;;;;;;8.65;3.30;;;26.50;94.50;;;;;;5030364;28;20498;-67
2023/07/11 08:06:51;;;;;;;7.70;3.13;;;26.50;94.30;;;;;;5032496;28;20042;-68
2023/07/11 08:09:18;;;;;;;9.65;3.33;;;26.50;94.50;;;;;;5031873;28;20131;-68
2023/07/11 08:11:44;;;;;;;6.22;3.35;;;26.50;94.60;;;;;;5014468;28;20103;-68
2023/07/11 08:14:10;;;;;;;7.22;3.10;;;26.80;94.70;;;;;;5031999;28;20096;-69
2023/07/11 08:16:38;;;;;;;7.18;3.22;;;27.20;94.60;;;;;;5031670;28;20041;-71
2023/07/11 08:19:06;;;;;;;6.85;3.25;;;27.50;94.20;;;;;;5035250;28;20046;-67
2023/07/11 08:21:33;;;;;;;9.30;2.90;;;27.80;94.20;;;;;;5034872;28;20053;-70
2023/07/11 08:23:58;;;;;;;7.78;2.95;;;27.90;93.80;;;;;;5036208;28;20045;-69
2023/07/11 08:26:25;;;;;;;6.40;3.05;;;27.90;93.80;;;;;;5035669;28;20467;-68
2023/07/11 08:28:51;;;;;;;9.10;3.00;;;27.90;94.00;;;;;;5035035;28;20132;-70
2023/07/11 08:31:17;;;;;;;7.60;2.85;;;28.00;94.10;;;;;;5035850;28;20045;-75
2023/07/11 08:33:43;;;;;;;8.55;3.10;;;28.00;94.00;;;;;;5034083;28;20052;-68
2023/07/11 08:36:09;;;;;;;8.55;3.20;;;28.00;93.90;;;;;;5034769;28;20041;-68
2023/07/11 08:38:35;;;;;;;8.32;3.42;;;28.10;93.90;;;;;;5034245;28;20053;-69
2023/07/11 08:41:38;;;;;;;5.65;3.00;;;28.20;94.00;;;;;;5034514;28;20041;-68
2023/07/11 08:44:11;;;;;;;7.30;3.22;;;28.20;93.80;;;;;;5050798;28;20053;-68
2023/07/11 08:46:44;;;;;;;7.33;2.90;;;28.10;93.70;;;;;;5035062;28;20056;-67
2023/07/11 08:49:19;;;;;;;6.53;3.03;;;28.20;93.40;;;;;;5035551;28;20049;-70
2023/07/11 08:51:50;;;;;;;7.75;3.05;;;28.70;93.60;;;;;;5035822;28;20053;-69
2023/07/11 08:54:51;;;;;;;5.88;2.83;;;29.40;93.00;;;;;;5035347;28;20116;-66
2023/07/11 08:57:20;;;;;;;7.30;3.10;;;30.20;92.50;;;;;;5035660;28;20118;-69
2023/07/11 08:59:54;;;;;;;7.78;2.97;;;30.90;91.40;;;;;;5035536;28;20048;-69
2023/07/11 09:02:42;;;;;;;7.85;2.78;;;31.60;91.20;;;;;;5035547;28;20114;-76
2023/07/11 09:05:49;;;;;;;6.35;2.55;;;32.10;90.50;;;;;;5035349;28;20632;-67
2023/07/11 09:08:17;;;;;;;7.20;2.88;;;32.50;89.50;;;;;;5034700;28;20518;-69
2023/07/11 09:10:58;;;;;;;8.43;3.28;;;32.40;89.90;;;;;;5050091;28;20433;-68
2023/07/11 09:13:53;;;;;;;6.65;2.78;;;32.40;89.60;;;;;;5033658;28;20060;-70
2023/07/11 09:16:30;;;;;;;6.43;3.22;;;32.60;89.60;;;;;;5014624;28;20093;-66
2023/07/11 09:19:11;;;;;;;7.25;2.85;;;33.00;88.40;;;;;;5034092;28;20110;-69
2023/07/11 09:21:52;;;;;;;8.25;2.72;;;33.30;87.70;;;;;;5034963;28;20053;-67
2023/07/11 09:24:33;;;;;;;10.55;2.80;;;33.30;87.40;;;;;;5034880;28;20049;-67
2023/07/11 09:27:15;;;;;;;10.35;2.65;;;33.20;85.20;;;;;;5035079;28;20042;-68
2023/07/11 09:29:46;;;;;;;5.43;2.38;;;33.10;86.10;;;;;;5032836;28;20470;-68
2023/07/11 09:32:12;;;;;;;5.47;2.47;;;33.10;86.40;;;;;;5035226;28;20366;-68
2023/07/11 09:34:44;;;;;;;9.52;2.60;;;33.00;86.10;;;;;;5034733;28;20049;-68
2023/07/11 09:37:17;;;;;;;7.60;2.33;;;33.10;87.00;;;;;;5034424;28;20482;-68
2023/07/11 09:39:49;;;;;;;7.53;2.60;;;33.40;86.20;;;;;;5034114;28;20060;-69
2023/07/11 09:42:26;;;;;;;7.50;2.30;;;33.70;86.20;;;;;;5034551;28;20495;-71
2023/07/11 09:45:08;;;;;;;6.90;2.00;;;33.90;86.20;;;;;;5034041;28;20586;-68
2023/07/11 09:47:35;;;;;;;7.40;2.72;;;34.10;85.10;;;;;;5034185;28;20059;-67
2023/07/11 09:50:27;;;;;;;5.35;2.00;;;34.40;85.30;;;;;;5034650;28;20046;-68
2023/07/11 09:52:58;;;;;;;7.22;2.38;;;34.20;83.90;;;;;;5033052;28;20063;-70
2023/07/11 09:55:30;;;;;;;7.00;1.98;;;34.30;84.50;;;;;;5033592;28;20084;-68
2023/07/11 09:57:56;;;;;;;7.60;2.00;;;34.50;84.40;;;;;;5033354;28;20067;-69
2023/07/11 10:00:21;;;;;;;5.78;2.13;;;34.50;83.90;;;;;;5034604;28;20095;-70
2023/07/11 10:02:48;;;;;;;7.30;2.35;;;34.50;82.80;;;;;;5032667;28;20089;-69
2023/07/11 10:05:21;;;;;;;7.30;2.50;;;34.20;82.60;;;;;;5032719;28;20388;-69
2023/07/11 10:07:58;;;;;;;;;;;33.90;83.00;;;;;;5034088;28;20046;-69
2023/07/11 10:10:23;;;;;;;6.07;2.10;;;33.60;82.30;;;;;;5034618;28;19946;-69
2023/07/11 10:12:50;;;;;;;7.32;2.10;;;33.50;83.10;;;;;;5033830;28;20037;-70
2023/07/11 10:15:18;;;;;;;9.10;2.42;;;33.40;83.90;;;;;;5033964;28;20124;-70
2023/07/11 10:17:45;;;;;;;7.72;2.10;;;33.40;84.10;;;;;;5032758;28;20128;-69
2023/07/11 10:20:20;;;;;;;6.15;1.90;;;33.20;83.90;;;;;;5034067;28;20083;-69
2023/07/11 10:22:52;;;;;;;7.30;2.20;;;32.90;83.30;;;;;;5032750;28;20080;-68
2023/07/11 10:25:26;;;;;;;6.40;2.10;;;32.70;84.40;;;;;;5048410;28;20431;-68
2023/07/11 10:28:06;;;;;;;6.07;2.10;;;32.40;84.20;;;;;;5032540;28;20107;-69
2023/07/11 10:30:34;;;;;;;7.80;2.20;;;32.30;85.50;;;;;;5033812;28;20033;-75
2023/07/11 10:33:07;;;;;;;9.55;2.50;;;32.20;85.30;;;;;;5032959;28;20053;-68
2023/07/11 10:35:34;;;;;;;5.35;2.22;;;32.10;85.30;;;;;;5033474;28;20049;-78
2023/07/11 10:38:04;;;;;;;6.75;2.40;;;32.10;85.60;;;;;;5033755;28;20159;-67
2023/07/11 10:40:51;;;;;;;7.15;2.45;;;31.90;85.40;;;;;;5033829;28;20048;-68
2023/07/11 10:43:28;;;;;;;6.93;2.17;;;31.80;85.90;;;;;;5032992;28;20497;-70
2023/07/11 10:46:04;;;;;;;4.85;2.17;;;31.50;86.60;;;;;;5033574;28;20697;-70
2023/07/11 10:48:32;;;;;;;7.30;2.13;;;31.40;86.60;;;;;;5033878;28;20050;-67
2023/07/11 10:51:14;;;;;;;4.43;2.30;;;31.40;87.10;;;;;;5033928;28;20136;-69
2023/07/11 10:54:20;;;;;;;10.88;2.90;;;31.50;87.20;;;;;;5033305;28;20124;-70
2023/07/11 10:56:50;;;;;;;10.18;2.80;;;31.30;87.60;;;;;;5031536;28;20056;-69
2023/07/11 10:59:23;;;;;;;5.32;2.30;;;31.10;87.10;;;;;;5033607;28;20084;-67
2023/07/11 11:02:05;;;;;;;6.68;2.50;;;31.00;87.00;;;;;;5031984;28;20161;-68
2023/07/11 11:04:39;;;;;;;10.32;2.47;;;30.90;87.40;;;;;;5032540;28;20107;-68
2023/07/11 11:07:21;;;;;;;6.57;2.25;;;30.90;87.60;;;;;;5033272;28;20049;-68
2023/07/11 11:09:56;;;;;;;5.05;2.22;;;31.00;86.60;;;;;;5032963;28;20052;-68
2023/07/11 11:12:34;;;;;;;4.75;2.20;;;31.00;87.50;;;;;;5033270;28;20080;-69
2023/07/11 11:15:05;;;;;;;8.95;2.88;;;31.20;87.20;;;;;;5032857;28;20053;-68
2023/07/11 11:17:40;;;;;;;17.90;3.00;;;31.20;88.00;;;;;;5032982;28;20083;-69
2023/07/11 11:20:32;;;;;;;13.88;3.20;;;31.10;86.60;;;;;;5031958;28;20399;-69
2023/07/11 11:23:20;;;;;;;7.80;2.30;;;31.00;87.50;;;;;;5032612;28;20453;-69
2023/07/11 11:25:57;;;;;;;7.03;2.20;;;31.10;87.80;;;;;;5032685;28;20227;-73
2023/07/11 11:28:32;;;;;;;21.27;3.30;;;31.10;88.30;;;;;;5032886;28;20502;-69
2023/07/11 11:31:21;;;;;;;6.90;2.78;;;31.10;88.40;;;;;;5032604;28;20053;-71
2023/07/11 11:34:05;;;;;;;8.88;2.70;;;31.10;89.30;;;;;;5032353;28;20536;-71
2023/07/11 11:36:46;;;;;;;4.85;2.60;;;31.10;89.20;;;;;;5032704;28;20582;-72
2023/07/11 11:39:43;;;;;;;6.57;2.58;;;31.20;89.00;;;;;;5032826;28;20045;-71
2023/07/11 11:42:20;;;;;;;6.85;2.38;;;31.20;88.20;;;;;;5031442;28;20629;-71
2023/07/11 11:44:53;;;;;;;6.45;2.08;;;31.10;88.30;;;;;;5031574;28;20061;-72
2023/07/11 11:47:20;;;;;;;;;;;31.10;88.80;;;;;;5033181;28;20045;-73
2023/07/11 11:49:47;;;;;;;9.25;2.95;;;31.10;88.40;;;;;;5032197;28;19921;-72
2023/07/11 11:52:14;;;;;;;7.45;2.70;;;31.20;88.70;;;;;;5031212;28;20605;-71
2023/07/11 11:54:46;;;;;;;7.57;2.45;;;31.20;88.40;;;;;;5032440;28;20099;-72
2023/07/11 11:57:22;;;;;;;7.32;2.65;;;31.00;88.60;;;;;;5032594;28;20084;-71
2023/07/11 11:59:49;;;;;;;6.80;2.70;;;31.00;88.60;;;;;;5047703;28;20081;-71
2023/07/11 12:02:14;;;;;;;10.60;2.83;;;30.90;89.00;;;;;;5032249;28;20058;-72
2023/07/11 12:04:57;;;;;;;11.10;3.15;;;30.90;89.70;;;;;;5032514;28;20063;-72
2023/07/11 12:07:26;;;;;;;8.13;2.55;;;31.10;90.00;;;;;;5031742;28;20042;-71
2023/07/11 12:09:52;;;;;;;6.63;2.30;;;31.30;89.20;;;;;;5030983;28;20057;-73
2023/07/11 12:12:21;;;;;;;5.32;2.42;;;31.20;88.60;;;;;;5031278;28;20037;-73
2023/07/11 12:14:51;;;;;;;7.40;2.58;;;31.30;88.90;;;;;;5014688;28;20041;-72
2023/07/11 12:17:40;;;;;;;6.93;2.25;;;31.20;88.60;;;;;;5030829;28;20053;-71
2023/07/11 12:20:06;;;;;;;7.28;2.83;;;31.40;89.40;;;;;;5020050;28;20122;-72
2023/07/11 12:22:34;;;;;;;7.40;2.35;;;31.30;88.60;;;;;;5031226;28;20049;-71
2023/07/11 12:25:13;;;;;;;7.88;2.70;;;31.30;88.40;;;;;;5014725;28;20045;-72
2023/07/11 12:27:39;;;;;;;9.70;2.60;;;31.30;89.00;;;;;;5031023;28;20487;-71
2023/07/11 12:30:14;;;;;;;5.38;2.30;;;31.30;89.30;;;;;;5030545;28;20045;-74
2023/07/11 12:32:41;;;;;;;8.02;2.78;;;31.40;88.30;;;;;;5031042;28;20049;-72
2023/07/11 12:35:07;;;;;;;6.75;2.45;;;31.40;88.80;;;;;;5031755;28;20081;-72
2023/07/11 12:38:01;;;;;;;7.15;2.40;;;31.50;88.70;;;;;;5030916;28;20091;-71
2023/07/11 12:40:31;;;;;;;8.70;2.60;;;31.50;87.80;;;;;;5005422;28;20056;-71
2023/07/11 12:43:02;;;;;;;8.13;2.70;;;31.50;88.20;;;;;;5014236;28;20132;-71
2023/07/11 12:45:37;;;;;;;6.97;3.00;;;31.40;88.40;;;;;;5047384;28;20045;-71
2023/07/11 12:48:13;;;;;;;6.10;2.60;;;31.30;88.60;;;;;;5030396;28;20049;-71
2023/07/11 12:50:50;;;;;;;6.93;2.85;;;31.50;88.70;;;;;;5031018;28;20050;-72
2023/07/11 12:53:16;;;;;;;7.90;2.90;;;31.40;88.90;;;;;;5031131;28;20053;-72
2023/07/11 12:55:43;;;;;;;6.75;2.78;;;31.40;89.60;;;;;;5030989;28;20506;-71
2023/07/11 12:58:23;;;;;;;6.65;2.70;;;31.20;88.60;;;;;;5030522;28;20076;-68